Time;durP1;ratioP1;P1;durP2;ratioP2;P2;SDS_P1;SDS_P2;PMS_P1;PMS_P2;Temp;Humidity;BMP_temperature;BMP_pressure;BME280_temperature;BME280_humidity;BME280_pressure;Samples;Min_cycle;Max_cycle;Signal;HPM_P1;HPM_P2
2022/12/31 00:01:31;;;;;;;1.75;1.45;;;13.50;94.00;;;;;;5007190;28;20037;-73
2022/12/31 00:03:57;;;;;;;2.22;1.50;;;13.50;94.00;;;;;;5013103;28;20030;-78
2022/12/31 00:06:28;;;;;;;3.20;1.50;;;13.50;94.10;;;;;;5004497;28;20538;-71
2022/12/31 00:08:56;;;;;;;2.13;1.30;;;13.40;94.10;;;;;;5002927;28;20038;-72
2022/12/31 00:11:23;;;;;;;2.47;1.50;;;13.40;94.10;;;;;;5000025;28;20037;-72
2022/12/31 00:13:50;;;;;;;1.98;1.25;;;13.40;94.20;;;;;;4995762;28;20495;-75
2022/12/31 00:16:21;;;;;;;3.33;1.50;;;13.40;94.20;;;;;;5001815;28;20037;-77
2022/12/31 00:18:49;;;;;;;2.03;1.55;;;13.40;94.20;;;;;;5000097;28;20435;-75
2022/12/31 00:21:16;;;;;;;2.00;1.35;;;13.30;94.10;;;;;;4999418;28;20046;-80
2022/12/31 00:23:42;;;;;;;1.40;1.13;;;13.30;94.10;;;;;;5005368;28;20221;-74
2022/12/31 00:26:10;;;;;;;2.55;1.33;;;13.30;94.20;;;;;;5008167;28;20057;-73
2022/12/31 00:28:37;;;;;;;2.05;1.10;;;13.30;94.20;;;;;;5000866;28;20493;-73
2022/12/31 00:31:07;;;;;;;2.42;1.50;;;13.30;94.20;;;;;;5000959;28;20048;-74
2022/12/31 00:33:32;;;;;;;1.95;1.63;;;13.30;94.30;;;;;;5000337;28;20083;-74
2022/12/31 00:36:07;;;;;;;2.47;1.70;;;13.30;94.30;;;;;;5005429;28;20050;-75
2022/12/31 00:38:34;;;;;;;2.67;1.50;;;13.30;94.20;;;;;;5002776;28;20110;-75
2022/12/31 00:41:00;;;;;;;1.90;1.63;;;13.30;94.30;;;;;;5003748;28;20036;-73
2022/12/31 00:43:25;;;;;;;2.72;1.60;;;13.30;94.40;;;;;;5008638;28;20014;-79
2022/12/31 00:45:51;;;;;;;2.63;1.77;;;13.20;94.30;;;;;;4996092;28;20053;-76
2022/12/31 00:48:17;;;;;;;2.22;1.60;;;13.20;94.30;;;;;;5007122;28;20036;-73
2022/12/31 00:50:43;;;;;;;2.35;1.85;;;13.20;94.20;;;;;;5000859;28;20424;-78
2022/12/31 00:53:09;;;;;;;2.17;1.60;;;13.10;94.30;;;;;;4999404;28;20370;-75
2022/12/31 00:55:35;;;;;;;2.28;1.60;;;13.10;94.30;;;;;;4997667;28;20038;-75
2022/12/31 00:58:00;;;;;;;2.00;1.60;;;13.10;94.40;;;;;;5002459;28;20042;-74
2022/12/31 01:00:26;;;;;;;2.65;1.40;;;13.10;94.40;;;;;;5006611;28;20114;-74
2022/12/31 01:02:51;;;;;;;1.48;1.30;;;13.10;94.40;;;;;;5003935;28;20470;-79
2022/12/31 01:05:17;;;;;;;1.88;1.30;;;13.10;94.40;;;;;;5009580;28;20029;-74
2022/12/31 01:07:43;;;;;;;1.60;1.30;;;13.10;94.40;;;;;;4999753;28;20050;-74
2022/12/31 01:10:09;;;;;;;1.40;1.30;;;13.10;94.40;;;;;;5001476;28;20520;-76
2022/12/31 01:12:34;;;;;;;1.70;1.20;;;13.10;94.40;;;;;;5005037;28;20038;-73
2022/12/31 01:15:00;;;;;;;2.58;1.33;;;13.10;94.30;;;;;;5008839;28;20041;-78
2022/12/31 01:17:27;;;;;;;2.85;1.33;;;13.10;94.30;;;;;;5005159;28;20667;-72
2022/12/31 01:19:52;;;;;;;2.47;1.20;;;13.10;94.40;;;;;;5009545;28;20157;-75
2022/12/31 01:22:18;;;;;;;1.27;0.93;;;13.10;94.40;;;;;;5004664;28;20117;-77
2022/12/31 01:24:43;;;;;;;1.92;1.02;;;13.10;94.40;;;;;;5002661;28;20096;-73
2022/12/31 01:27:09;;;;;;;2.97;1.10;;;13.10;94.40;;;;;;4992797;28;20149;-74
2022/12/31 01:29:35;;;;;;;2.42;1.20;;;13.10;94.30;;;;;;5006701;28;20036;-73
2022/12/31 01:32:00;;;;;;;1.48;1.20;;;13.10;94.40;;;;;;5005743;28;20049;-72
2022/12/31 01:34:26;;;;;;;2.63;1.23;;;13.10;94.40;;;;;;5000600;28;20034;-76
2022/12/31 01:36:52;;;;;;;2.65;1.30;;;13.10;94.40;;;;;;5007544;28;20036;-74
2022/12/31 01:39:17;;;;;;;2.63;1.45;;;13.00;94.30;;;;;;5003186;28;20030;-72
2022/12/31 01:41:46;;;;;;;3.00;1.35;;;13.10;94.30;;;;;;4998732;28;20536;-76
2022/12/31 01:44:11;;;;;;;2.08;1.30;;;13.10;94.30;;;;;;5005341;28;20026;-76
2022/12/31 01:46:50;;;;;;;2.85;1.60;;;13.00;94.30;;;;;;5001739;28;20034;-74
2022/12/31 01:49:21;;;;;;;3.28;1.55;;;13.00;94.40;;;;;;5003919;28;20022;-75
2022/12/31 01:52:11;;;;;;;3.03;1.60;;;13.00;94.40;;;;;;5001059;28;20031;-76
2022/12/31 01:55:04;;;;;;;2.58;1.40;;;13.00;94.50;;;;;;5005357;28;20029;-77
2022/12/31 01:57:30;;;;;;;2.47;1.40;;;13.00;94.40;;;;;;4999478;28;20049;-73
2022/12/31 01:59:57;;;;;;;3.63;1.67;;;12.90;94.40;;;;;;4993636;28;20401;-73
2022/12/31 02:02:23;;;;;;;3.28;1.60;;;12.90;94.50;;;;;;5004493;28;20029;-78
2022/12/31 02:04:51;;;;;;;2.75;1.67;;;13.00;94.60;;;;;;5004908;28;20458;-75
2022/12/31 02:07:17;;;;;;;2.65;1.60;;;12.90;94.50;;;;;;5005768;28;20049;-73
2022/12/31 02:09:43;;;;;;;2.25;1.60;;;13.00;94.50;;;;;;5007461;28;20026;-78
2022/12/31 02:12:09;;;;;;;3.28;1.77;;;12.90;94.60;;;;;;5011648;28;20415;-74
2022/12/31 02:14:45;;;;;;;2.97;1.52;;;13.00;94.60;;;;;;5003295;28;20054;-75
2022/12/31 02:17:14;;;;;;;1.90;1.30;;;13.00;94.60;;;;;;5004329;28;20396;-74
2022/12/31 02:20:07;;;;;;;2.00;1.30;;;12.90;94.60;;;;;;5006884;28;20021;-76
2022/12/31 02:23:22;;;;;;;1.60;1.20;;;12.90;94.60;;;;;;5005093;28;20112;-74
2022/12/31 02:26:19;;;;;;;2.33;1.20;;;12.90;94.70;;;;;;4999902;28;20575;-74
2022/12/31 02:29:07;;;;;;;1.20;1.10;;;12.80;94.70;;;;;;5004548;28;20032;-78
2022/12/31 02:31:42;;;;;;;2.63;1.15;;;12.90;94.70;;;;;;5006046;28;20038;-74
2022/12/31 02:34:35;;;;;;;1.10;1.00;;;12.90;94.70;;;;;;5004866;28;20109;-73
2022/12/31 02:37:05;;;;;;;2.70;1.20;;;12.80;94.70;;;;;;4997172;28;20038;-75
2022/12/31 02:39:32;;;;;;;1.20;1.00;;;12.90;94.70;;;;;;5009764;28;20022;-74
2022/12/31 02:41:59;;;;;;;1.70;1.10;;;12.90;94.70;;;;;;4996489;28;20045;-76
2022/12/31 02:44:31;;;;;;;3.00;1.40;;;12.90;94.80;;;;;;5010275;28;20029;-77
2022/12/31 02:47:20;;;;;;;2.45;1.40;;;12.90;94.80;;;;;;5002774;28;20054;-74
2022/12/31 02:50:21;;;;;;;3.08;1.60;;;13.00;95.00;;;;;;4996082;28;20018;-75
2022/12/31 02:52:52;;;;;;;5.93;1.88;;;13.10;95.30;;;;;;4999833;28;20049;-77
2022/12/31 02:55:54;;;;;;;4.05;1.80;;;13.30;95.50;;;;;;4998703;28;20110;-76
2022/12/31 03:02:12;;;;;;;4.65;1.67;;;13.40;95.60;;;;;;5004444;28;20124;-75
2022/12/31 03:04:30;;;;;;;;;;;13.60;95.70;;;;;;5006751;28;20079;-76
2022/12/31 03:06:40;;;;;;;3.35;1.45;;;13.80;95.50;;;;;;5001192;28;20008;-73
2022/12/31 03:09:12;;;;;;;5.20;1.58;;;13.90;95.40;;;;;;4998688;28;20678;-74
2022/12/31 03:14:21;;;;;;;6.55;1.88;;;14.00;95.10;;;;;;5004814;28;20056;-74
2022/12/31 03:16:48;;;;;;;11.35;1.88;;;14.10;95.00;;;;;;5003129;28;20038;-73
2022/12/31 03:27:26;;;;;;;6.13;2.00;;;14.30;94.20;;;;;;4998915;28;20052;-76
2022/12/31 03:29:51;;;;;;;5.28;1.60;;;14.30;94.10;;;;;;5008303;28;20600;-73
2022/12/31 03:32:17;;;;;;;8.23;1.60;;;14.40;94.00;;;;;;5004417;28;20034;-77
2022/12/31 03:34:42;;;;;;;7.90;1.50;;;14.40;94.00;;;;;;5001667;28;20526;-73
2022/12/31 03:37:08;;;;;;;8.90;2.35;;;14.40;94.00;;;;;;4999743;28;20035;-73
2022/12/31 03:39:34;;;;;;;6.10;1.58;;;14.40;93.90;;;;;;5002008;28;20506;-73
2022/12/31 03:41:59;;;;;;;8.98;1.88;;;14.50;93.70;;;;;;5007029;28;20111;-75
2022/12/31 03:44:25;;;;;;;5.40;1.70;;;14.50;93.70;;;;;;5000605;28;20030;-77
2022/12/31 03:46:51;;;;;;;7.47;1.60;;;14.50;93.70;;;;;;4996965;28;20042;-73
2022/12/31 03:49:16;;;;;;;7.18;1.80;;;14.50;93.60;;;;;;5005608;28;20026;-74
2022/12/31 03:51:42;;;;;;;4.70;1.30;;;14.60;93.50;;;;;;5008615;28;20033;-75
2022/12/31 03:54:07;;;;;;;5.50;1.33;;;14.60;93.50;;;;;;5011910;28;20108;-76
2022/12/31 03:56:33;;;;;;;3.97;1.50;;;14.60;93.30;;;;;;4996228;28;20034;-76
2022/12/31 03:58:59;;;;;;;5.80;1.85;;;14.60;93.40;;;;;;5000908;28;20421;-74
2022/12/31 04:01:25;;;;;;;8.18;1.60;;;14.60;93.30;;;;;;5001381;28;20026;-77
2022/12/31 04:03:50;;;;;;;9.30;1.70;;;14.60;93.30;;;;;;5004267;28;20032;-74
2022/12/31 04:06:16;;;;;;;4.47;1.23;;;14.60;93.30;;;;;;4996013;28;20049;-73
2022/12/31 04:08:42;;;;;;;6.20;1.40;;;14.60;93.30;;;;;;5006278;28;20398;-74
2022/12/31 04:11:08;;;;;;;3.75;1.30;;;14.60;93.10;;;;;;5001674;28;20528;-73
2022/12/31 04:13:33;;;;;;;4.97;1.50;;;14.70;93.20;;;;;;4999971;28;20525;-73
2022/12/31 04:15:59;;;;;;;4.95;1.35;;;14.60;93.10;;;;;;4998787;28;20135;-78
2022/12/31 04:18:25;;;;;;;5.97;1.70;;;14.70;93.10;;;;;;5000588;28;20023;-73
2022/12/31 04:20:50;;;;;;;6.13;1.90;;;14.70;93.10;;;;;;4994171;28;20469;-75
2022/12/31 04:23:16;;;;;;;6.13;1.60;;;14.70;93.20;;;;;;5004175;28;20100;-74
2022/12/31 04:25:42;;;;;;;5.10;1.23;;;14.70;93.20;;;;;;4998768;28;20408;-74
2022/12/31 04:28:07;;;;;;;5.82;1.30;;;14.70;93.40;;;;;;5011753;28;20444;-78
2022/12/31 04:30:33;;;;;;;3.22;1.02;;;14.70;93.30;;;;;;4999593;28;20022;-74
2022/12/31 04:32:59;;;;;;;4.20;1.30;;;14.70;93.40;;;;;;4998715;28;20034;-74
2022/12/31 04:35:24;;;;;;;6.43;1.35;;;14.60;93.40;;;;;;4998231;28;20037;-74
2022/12/31 04:37:50;;;;;;;3.35;1.23;;;14.70;93.40;;;;;;5006454;28;20025;-74
2022/12/31 04:40:16;;;;;;;3.92;1.42;;;14.70;93.40;;;;;;5000005;28;20034;-74
2022/12/31 04:42:41;;;;;;;6.45;1.30;;;14.70;93.40;;;;;;5012031;28;20049;-75
2022/12/31 04:45:07;;;;;;;4.28;1.38;;;14.70;93.40;;;;;;5007932;28;20366;-73
2022/12/31 04:47:33;;;;;;;4.68;1.40;;;14.70;93.20;;;;;;5005804;28;20046;-76
2022/12/31 04:49:59;;;;;;;5.50;1.20;;;14.70;93.00;;;;;;4998171;28;20100;-76
2022/12/31 04:52:24;;;;;;;6.03;1.40;;;14.80;92.80;;;;;;5011198;28;20099;-73
2022/12/31 04:54:50;;;;;;;3.72;1.17;;;14.80;92.50;;;;;;5005340;28;20563;-75
2022/12/31 04:57:16;;;;;;;4.97;1.33;;;14.90;92.30;;;;;;5003271;28;20074;-73
2022/12/31 04:59:41;;;;;;;4.03;1.10;;;15.00;92.10;;;;;;5013869;28;20025;-77
2022/12/31 05:02:07;;;;;;;2.42;1.10;;;15.00;91.80;;;;;;5007387;28;20088;-75
2022/12/31 05:04:33;;;;;;;3.50;1.40;;;15.00;91.60;;;;;;5015264;28;20458;-73
2022/12/31 05:06:58;;;;;;;4.63;1.05;;;15.00;91.30;;;;;;5009329;28;20096;-74
2022/12/31 05:09:26;;;;;;;5.95;1.42;;;15.10;91.10;;;;;;5005154;28;20029;-76
2022/12/31 05:11:52;;;;;;;2.88;1.20;;;15.10;90.80;;;;;;5001196;28;20030;-78
2022/12/31 05:14:17;;;;;;;3.00;1.05;;;15.10;90.50;;;;;;5001845;28;20041;-74
2022/12/31 05:16:43;;;;;;;3.08;1.00;;;15.20;90.40;;;;;;5006679;28;20044;-73
2022/12/31 05:19:09;;;;;;;2.75;1.15;;;15.20;90.00;;;;;;4995354;28;20031;-77
2022/12/31 05:21:35;;;;;;;2.95;0.93;;;15.30;89.90;;;;;;5007363;28;20080;-72
2022/12/31 05:24:01;;;;;;;2.25;0.98;;;15.30;89.60;;;;;;5000075;28;20030;-71
2022/12/31 05:26:26;;;;;;;4.53;1.38;;;15.40;89.50;;;;;;5002548;28;20077;-76
2022/12/31 05:28:54;;;;;;;2.33;1.02;;;15.40;89.50;;;;;;5006843;28;20407;-73
2022/12/31 05:31:19;;;;;;;3.40;1.13;;;15.40;89.50;;;;;;5007771;28;20042;-73
2022/12/31 05:33:45;;;;;;;2.38;1.08;;;15.40;89.40;;;;;;5015391;28;20516;-75
2022/12/31 05:36:11;;;;;;;2.33;0.95;;;15.50;89.30;;;;;;5005616;28;20057;-77
2022/12/31 05:38:37;;;;;;;2.28;0.85;;;15.50;89.10;;;;;;5010963;28;20367;-76
2022/12/31 05:41:04;;;;;;;4.03;1.15;;;15.50;88.80;;;;;;5005061;28;20104;-73
2022/12/31 05:43:31;;;;;;;2.58;1.15;;;15.60;88.70;;;;;;5011254;28;20025;-73
2022/12/31 05:46:00;;;;;;;4.00;1.30;;;15.60;88.70;;;;;;5007647;28;20448;-76
2022/12/31 05:48:25;;;;;;;3.60;1.20;;;15.60;88.60;;;;;;5007212;28;20029;-72
2022/12/31 05:50:51;;;;;;;6.70;1.23;;;15.60;88.80;;;;;;5005970;28;20096;-73
2022/12/31 05:53:17;;;;;;;2.75;0.98;;;15.60;89.30;;;;;;5001073;28;20029;-77
2022/12/31 05:55:45;;;;;;;2.53;1.10;;;15.60;89.40;;;;;;5009549;28;20038;-72
2022/12/31 05:58:12;;;;;;;4.32;1.13;;;15.60;89.30;;;;;;4995943;28;20113;-76
2022/12/31 06:00:37;;;;;;;3.95;1.05;;;15.60;89.20;;;;;;5000718;28;20050;-73
2022/12/31 06:03:03;;;;;;;4.18;1.40;;;15.60;89.10;;;;;;4999671;28;20446;-75
2022/12/31 06:05:29;;;;;;;2.25;1.08;;;15.60;89.10;;;;;;4999638;28;20367;-77
2022/12/31 06:07:54;;;;;;;2.38;1.08;;;15.60;89.10;;;;;;5004055;28;20022;-74
2022/12/31 06:10:20;;;;;;;2.05;1.05;;;15.60;88.90;;;;;;4993981;28;20379;-74
2022/12/31 06:12:46;;;;;;;3.35;1.23;;;15.60;89.10;;;;;;4998123;28;20072;-73
2022/12/31 06:15:11;;;;;;;4.07;1.10;;;15.50;89.20;;;;;;4994295;28;20320;-73
2022/12/31 06:17:37;;;;;;;5.07;1.42;;;15.60;89.10;;;;;;5001529;28;20045;-78
2022/12/31 06:20:03;;;;;;;4.60;1.42;;;15.60;88.80;;;;;;4993684;28;20034;-72
2022/12/31 06:22:29;;;;;;;11.18;1.60;;;15.60;88.60;;;;;;5002789;28;20038;-72
2022/12/31 06:24:54;;;;;;;3.42;1.25;;;15.70;88.50;;;;;;5000463;28;20037;-74
2022/12/31 06:27:20;;;;;;;3.50;1.20;;;15.60;88.80;;;;;;4995547;28;20475;-73
2022/12/31 06:29:46;;;;;;;5.75;1.58;;;15.60;89.00;;;;;;5011549;28;20457;-73
2022/12/31 06:32:12;;;;;;;2.65;1.10;;;15.60;89.20;;;;;;4999343;28;20045;-73
2022/12/31 06:34:38;;;;;;;5.38;1.40;;;15.60;89.00;;;;;;5013053;28;20026;-74
2022/12/31 06:37:04;;;;;;;3.92;1.52;;;15.60;88.80;;;;;;4994410;28;20049;-75
2022/12/31 06:39:29;;;;;;;3.72;1.40;;;15.60;88.60;;;;;;5005010;28;20101;-78
2022/12/31 06:41:55;;;;;;;4.78;1.80;;;15.70;88.40;;;;;;5000806;28;20030;-72
2022/12/31 06:44:21;;;;;;;5.40;1.40;;;15.60;88.70;;;;;;4997856;28;20066;-73
2022/12/31 06:46:48;;;;;;;5.53;1.60;;;15.60;89.10;;;;;;4995469;28;20118;-73
2022/12/31 06:49:14;;;;;;;5.78;1.42;;;15.50;89.40;;;;;;4999408;28;20034;-73
2022/12/31 06:51:41;;;;;;;9.10;1.63;;;15.50;89.50;;;;;;4998317;28;20524;-73
2022/12/31 06:54:06;;;;;;;6.30;1.55;;;15.50;89.50;;;;;;5008252;28;20029;-72
2022/12/31 06:56:32;;;;;;;8.02;1.58;;;15.50;89.30;;;;;;4996321;28;20386;-75
2022/12/31 06:58:59;;;;;;;4.55;1.42;;;15.60;89.10;;;;;;5007042;28;20171;-73
2022/12/31 07:01:30;;;;;;;7.95;1.80;;;15.60;89.00;;;;;;5005879;28;20033;-72
2022/12/31 07:04:30;;;;;;;4.18;1.25;;;15.60;89.00;;;;;;5004618;28;20072;-78
2022/12/31 07:06:58;;;;;;;6.07;1.50;;;15.60;89.30;;;;;;5003155;28;20037;-78
2022/12/31 07:09:39;;;;;;;7.18;1.50;;;15.50;89.50;;;;;;4995913;28;20352;-73
2022/12/31 07:12:34;;;;;;;6.65;1.75;;;15.60;89.50;;;;;;5005123;28;20354;-72
2022/12/31 07:15:03;;;;;;;;;;;15.60;89.50;;;;;;5001154;28;20045;-75
2022/12/31 07:17:44;;;;;;;6.38;2.20;;;15.50;89.60;;;;;;4996992;28;20063;-71
2022/12/31 07:20:16;;;;;;;9.40;1.75;;;15.50;89.50;;;;;;5000099;28;20037;-75
2022/12/31 07:22:42;;;;;;;4.97;1.52;;;15.50;89.50;;;;;;4975080;28;20122;-75
2022/12/31 07:25:16;;;;;;;7.07;1.70;;;15.50;89.80;;;;;;4974190;28;20034;-74
2022/12/31 07:27:57;;;;;;;7.37;1.90;;;15.40;89.80;;;;;;4988316;28;20069;-72
2022/12/31 07:30:28;;;;;;;7.65;1.50;;;15.40;89.80;;;;;;4977324;28;20652;-76
2022/12/31 07:33:25;;;;;;;6.88;1.60;;;15.40;90.00;;;;;;4991191;28;20026;-74
2022/12/31 07:36:01;;;;;;;5.93;1.98;;;15.40;90.00;;;;;;4988308;28;20042;-72
2022/12/31 07:38:36;;;;;;;10.27;1.80;;;15.40;90.20;;;;;;4982432;28;20398;-72
2022/12/31 07:41:37;;;;;;;7.22;1.77;;;15.40;90.20;;;;;;4990672;28;20042;-72
2022/12/31 07:44:35;;;;;;;5.35;1.50;;;15.40;90.40;;;;;;4984516;28;20148;-74
2022/12/31 07:47:03;;;;;;;6.78;1.90;;;15.30;90.70;;;;;;4990638;28;20042;-75
2022/12/31 07:49:32;;;;;;;8.52;1.60;;;15.30;90.90;;;;;;5007188;28;20172;-73
2022/12/31 07:51:58;;;;;;;4.07;1.65;;;15.20;91.00;;;;;;5004710;28;20112;-72
2022/12/31 07:54:23;;;;;;;9.45;2.17;;;15.10;91.30;;;;;;5012062;28;20203;-74
2022/12/31 07:56:50;;;;;;;5.10;1.70;;;15.20;91.40;;;;;;5005862;28;20060;-73
2022/12/31 07:59:30;;;;;;;4.97;1.65;;;15.20;91.60;;;;;;5000845;28;20030;-74
2022/12/31 08:02:37;;;;;;;5.53;1.85;;;15.10;91.70;;;;;;5004756;28;20038;-73
2022/12/31 08:05:59;;;;;;;6.40;1.88;;;15.10;91.60;;;;;;5019702;28;20409;-77
2022/12/31 08:08:43;;;;;;;6.07;1.73;;;15.10;91.90;;;;;;4949660;28;20042;-73
2022/12/31 08:11:41;;;;;;;8.73;1.92;;;15.10;91.80;;;;;;4958179;28;20133;-72
2022/12/31 08:14:12;;;;;;;6.95;2.08;;;15.10;91.90;;;;;;4988942;28;20056;-72
2022/12/31 08:16:38;;;;;;;8.32;2.17;;;15.10;91.80;;;;;;5002854;28;20034;-72
2022/12/31 08:19:04;;;;;;;6.97;1.80;;;15.10;91.70;;;;;;5005478;28;20026;-72
2022/12/31 08:21:35;;;;;;;5.00;1.65;;;15.10;91.50;;;;;;5000137;28;20041;-77
2022/12/31 08:24:22;;;;;;;6.82;1.77;;;15.10;91.40;;;;;;5001527;28;20013;-73
2022/12/31 08:27:03;;;;;;;5.60;1.90;;;15.10;91.40;;;;;;5004434;28;20101;-72
2022/12/31 08:29:39;;;;;;;5.13;1.55;;;15.20;91.40;;;;;;5002252;28;20020;-72
2022/12/31 08:32:24;;;;;;;9.25;2.10;;;15.20;91.30;;;;;;4990941;28;20038;-72
2022/12/31 08:35:05;;;;;;;6.82;2.25;;;15.20;91.10;;;;;;4996458;28;20244;-73
2022/12/31 08:38:09;;;;;;;8.10;2.50;;;15.20;91.00;;;;;;4998717;28;20470;-77
2022/12/31 08:41:20;;;;;;;7.95;2.58;;;15.20;91.00;;;;;;4999193;28;20395;-73
2022/12/31 08:44:06;;;;;;;6.15;2.10;;;15.20;90.90;;;;;;5009692;28;20036;-77
2022/12/31 08:46:56;;;;;;;5.97;1.98;;;15.30;90.70;;;;;;4997593;28;20058;-79
2022/12/31 08:49:27;;;;;;;6.90;2.03;;;15.30;90.50;;;;;;4991806;28;20513;-73
2022/12/31 08:51:53;;;;;;;7.03;2.20;;;15.40;90.40;;;;;;5004755;28;20120;-75
2022/12/31 08:54:19;;;;;;;6.15;2.47;;;15.50;90.10;;;;;;5000485;28;20098;-73
2022/12/31 08:57:11;;;;;;;4.97;1.92;;;15.40;89.90;;;;;;4998213;28;20033;-79
2022/12/31 09:00:11;;;;;;;7.20;1.80;;;15.50;89.90;;;;;;4994122;28;20026;-78
2022/12/31 09:02:55;;;;;;;7.40;1.90;;;15.50;89.70;;;;;;5001708;28;20213;-75
2022/12/31 09:05:43;;;;;;;9.32;2.25;;;15.50;89.50;;;;;;5017965;28;20420;-73
2022/12/31 09:08:23;;;;;;;8.95;1.92;;;15.60;89.20;;;;;;5003041;28;20417;-72
2022/12/31 09:10:51;;;;;;;8.68;1.95;;;15.60;89.00;;;;;;4998893;28;20041;-72
2022/12/31 09:13:35;;;;;;;10.10;2.38;;;15.70;89.00;;;;;;5000008;28;20108;-79
2022/12/31 09:16:21;;;;;;;11.48;3.60;;;15.70;88.70;;;;;;4995148;28;20087;-76
2022/12/31 09:18:47;;;;;;;9.23;4.43;;;15.80;88.40;;;;;;4997225;28;20031;-80
2022/12/31 09:21:15;;;;;;;10.70;3.13;;;15.80;88.20;;;;;;5002670;28;20033;-77
2022/12/31 09:23:43;;;;;;;9.60;2.67;;;15.80;88.00;;;;;;5003405;28;20544;-76
2022/12/31 09:27:00;;;;;;;11.48;3.92;;;15.80;87.90;;;;;;5000625;28;20041;-77
2022/12/31 09:29:36;;;;;;;10.30;6.25;;;15.90;87.80;;;;;;5005004;28;20021;-79
2022/12/31 09:32:20;;;;;;;11.52;3.83;;;15.90;87.70;;;;;;4997491;28;20367;-76
2022/12/31 09:35:10;;;;;;;8.35;3.42;;;15.80;87.70;;;;;;5001381;28;20018;-77
2022/12/31 09:37:53;;;;;;;8.60;2.83;;;15.90;87.70;;;;;;5005189;28;20068;-77
2022/12/31 09:40:31;;;;;;;8.20;2.85;;;15.90;87.70;;;;;;4995561;28;20374;-76
2022/12/31 09:43:25;;;;;;;8.55;2.60;;;15.90;87.70;;;;;;4995920;28;20074;-77
2022/12/31 09:45:59;;;;;;;10.82;2.42;;;15.90;87.80;;;;;;5004896;28;20041;-78
2022/12/31 09:48:49;;;;;;;10.57;2.17;;;15.90;87.90;;;;;;5009146;28;20253;-79
2022/12/31 09:51:40;;;;;;;9.35;2.92;;;15.90;87.90;;;;;;4998407;28;20121;-80
2022/12/31 09:54:28;;;;;;;12.95;7.05;;;15.90;87.60;;;;;;5001577;28;20120;-78
2022/12/31 09:57:15;;;;;;;15.77;7.40;;;15.90;87.60;;;;;;4998251;28;20065;-78
2022/12/31 10:00:03;;;;;;;13.88;5.25;;;15.90;87.80;;;;;;5005513;28;20026;-83
2022/12/31 10:02:28;;;;;;;13.55;7.60;;;15.90;87.60;;;;;;5001027;28;20034;-80
2022/12/31 10:05:02;;;;;;;12.23;4.00;;;15.90;87.30;;;;;;5005819;28;20465;-80
2022/12/31 10:07:49;;;;;;;19.88;10.38;;;15.90;87.30;;;;;;5004454;28;20042;-79
2022/12/31 10:10:19;;;;;;;11.70;3.08;;;16.00;86.80;;;;;;5002117;28;20068;-77
2022/12/31 10:13:07;;;;;;;9.93;3.67;;;16.00;86.30;;;;;;5003429;28;20121;-80
2022/12/31 10:15:54;;;;;;;20.75;10.90;;;16.10;86.00;;;;;;4999011;28;20407;-75
2022/12/31 10:18:39;;;;;;;18.90;9.80;;;16.10;85.80;;;;;;5000928;28;20106;-77
2022/12/31 10:21:36;;;;;;;19.98;12.35;;;16.10;85.70;;;;;;5002963;28;20030;-74
2022/12/31 10:24:41;;;;;;;14.45;5.93;;;16.10;85.60;;;;;;5002852;28;20042;-75
2022/12/31 10:27:26;;;;;;;7.70;2.67;;;16.10;85.40;;;;;;5002276;28;20038;-75
2022/12/31 10:30:19;;;;;;;11.27;2.33;;;16.10;85.30;;;;;;5001700;28;20128;-75
2022/12/31 10:33:13;;;;;;;7.60;2.63;;;16.10;85.20;;;;;;4995662;28;20124;-74
2022/12/31 10:35:42;;;;;;;9.52;2.55;;;16.10;85.20;;;;;;4998914;28;20398;-74
2022/12/31 10:38:37;;;;;;;9.20;2.08;;;16.10;85.30;;;;;;4992745;28;20020;-73
2022/12/31 10:41:34;;;;;;;12.45;2.92;;;16.10;85.20;;;;;;4998307;28;20045;-75
2022/12/31 10:44:08;;;;;;;8.07;2.28;;;16.10;85.10;;;;;;5002855;28;20018;-74
2022/12/31 10:47:06;;;;;;;13.68;6.00;;;16.10;84.90;;;;;;4994597;28;20053;-77
2022/12/31 10:49:51;;;;;;;16.58;8.52;;;16.10;84.90;;;;;;5000108;28;20026;-80
2022/12/31 10:52:20;;;;;;;13.57;5.95;;;16.10;85.00;;;;;;4995889;28;20524;-78
2022/12/31 10:55:24;;;;;;;21.48;12.70;;;16.20;84.30;;;;;;4990356;28;20070;-81
2022/12/31 10:58:26;;;;;;;33.42;21.15;;;16.20;84.50;;;;;;4996432;28;20041;-80
2022/12/31 11:00:57;;;;;;;21.08;11.98;;;16.20;84.80;;;;;;4994976;28;20538;-81
2022/12/31 11:03:41;;;;;;;26.55;19.08;;;16.10;85.30;;;;;;5000952;28;20076;-80
2022/12/31 11:06:31;;;;;;;18.30;9.18;;;16.10;85.60;;;;;;4992871;28;20054;-76
2022/12/31 11:09:43;;;;;;;10.27;4.25;;;16.10;85.80;;;;;;4989038;28;20065;-81
2022/12/31 11:12:27;;;;;;;20.45;10.38;;;16.10;86.00;;;;;;4973900;28;20039;-79
2022/12/31 11:15:14;;;;;;;10.77;4.28;;;16.00;86.40;;;;;;4993364;28;20085;-78
2022/12/31 11:18:34;;;;;;;11.50;5.90;;;16.00;86.30;;;;;;4991340;28;20395;-78
2022/12/31 11:21:18;;;;;;;10.48;6.43;;;16.00;86.20;;;;;;4991094;28;20072;-77
2022/12/31 11:24:08;;;;;;;10.15;4.70;;;16.00;86.30;;;;;;4992243;28;20037;-79
2022/12/31 11:26:57;;;;;;;8.85;5.15;;;16.10;86.30;;;;;;4999889;28;20049;-79
2022/12/31 11:29:46;;;;;;;13.07;5.03;;;16.10;86.50;;;;;;5000422;28;20033;-78
2022/12/31 11:32:22;;;;;;;13.27;3.58;;;16.00;86.70;;;;;;4999350;28;20038;-78
2022/12/31 11:35:16;;;;;;;9.75;4.05;;;16.00;87.00;;;;;;5001225;28;20034;-80
2022/12/31 11:38:01;;;;;;;10.40;3.58;;;16.00;86.90;;;;;;5000651;28;20038;-80
2022/12/31 11:40:42;;;;;;;9.25;2.85;;;15.90;87.20;;;;;;5000525;28;20047;-79
2022/12/31 11:43:20;;;;;;;10.68;3.72;;;15.90;87.20;;;;;;4996285;28;20432;-81
2022/12/31 11:45:48;;;;;;;11.35;3.25;;;15.90;87.20;;;;;;5001843;28;20029;-80
2022/12/31 11:48:22;;;;;;;10.50;2.65;;;15.90;87.10;;;;;;5002658;28;20116;-81
2022/12/31 11:51:09;;;;;;;10.88;3.70;;;16.00;86.90;;;;;;5000487;28;20061;-81
2022/12/31 11:53:37;;;;;;;11.07;3.90;;;15.90;87.00;;;;;;4998905;28;20026;-81
2022/12/31 11:56:17;;;;;;;10.20;4.30;;;15.90;87.10;;;;;;4997586;28;20045;-80
2022/12/31 11:58:54;;;;;;;14.05;3.60;;;16.00;87.00;;;;;;5001237;28;20021;-80
2022/12/31 12:01:46;;;;;;;9.65;2.88;;;15.90;86.60;;;;;;4998115;28;20046;-80
2022/12/31 12:04:12;;;;;;;11.27;3.20;;;16.00;86.50;;;;;;5001097;28;20076;-79
2022/12/31 12:06:39;;;;;;;8.52;2.30;;;16.00;86.20;;;;;;4998065;28;20041;-80
2022/12/31 12:09:13;;;;;;;9.13;2.58;;;16.10;85.80;;;;;;5000768;28;20032;-78
2022/12/31 12:11:39;;;;;;;9.70;2.63;;;16.10;85.10;;;;;;5002198;28;20117;-81
2022/12/31 12:14:28;;;;;;;6.70;2.00;;;16.20;84.10;;;;;;4998701;28;20121;-79
2022/12/31 12:16:56;;;;;;;8.45;2.40;;;16.30;83.30;;;;;;4997907;28;20038;-80
2022/12/31 12:19:25;;;;;;;10.98;2.75;;;16.30;82.20;;;;;;4999064;28;20092;-76
2022/12/31 12:21:52;;;;;;;7.82;2.17;;;16.50;81.20;;;;;;4998537;28;20045;-79
2022/12/31 12:24:19;;;;;;;8.00;2.00;;;16.50;80.00;;;;;;5000181;28;20034;-79
2022/12/31 12:26:48;;;;;;;8.98;2.60;;;16.50;78.80;;;;;;5003756;28;20664;-78
2022/12/31 12:29:13;;;;;;;10.70;2.35;;;16.50;78.30;;;;;;4996013;28;20049;-81
2022/12/31 12:31:39;;;;;;;9.82;2.50;;;16.60;78.30;;;;;;4998884;28;20491;-78
2022/12/31 12:34:20;;;;;;;9.32;2.40;;;16.60;78.40;;;;;;4998144;28;20611;-79
2022/12/31 12:36:46;;;;;;;7.93;2.67;;;16.60;78.90;;;;;;4995627;28;20061;-79
2022/12/31 12:39:24;;;;;;;7.65;2.30;;;16.50;78.60;;;;;;5002938;28;20022;-79
2022/12/31 12:42:11;;;;;;;10.73;3.03;;;16.50;79.30;;;;;;4993611;28;20039;-79
2022/12/31 12:44:39;;;;;;;11.60;2.90;;;16.50;79.60;;;;;;4990465;28;20106;-79
2022/12/31 12:47:07;;;;;;;9.55;3.28;;;16.50;80.10;;;;;;4992858;28;20058;-80
2022/12/31 12:49:41;;;;;;;9.43;2.40;;;16.50;80.70;;;;;;5000650;28;20038;-78
2022/12/31 12:52:36;;;;;;;11.80;3.17;;;16.50;81.10;;;;;;5000545;28;20038;-79
2022/12/31 12:55:14;;;;;;;10.45;3.08;;;16.50;81.50;;;;;;4999009;28;20034;-80
2022/12/31 12:57:59;;;;;;;11.75;3.08;;;16.50;82.10;;;;;;5001031;28;20030;-79
2022/12/31 13:01:00;;;;;;;15.25;3.80;;;16.40;82.50;;;;;;4992516;28;20164;-79
2022/12/31 13:03:51;;;;;;;12.98;3.60;;;16.40;82.70;;;;;;4992623;28;20486;-80
2022/12/31 13:06:41;;;;;;;9.95;3.28;;;16.40;82.90;;;;;;4992460;28;20446;-79
2022/12/31 13:09:28;;;;;;;12.70;3.35;;;16.40;82.80;;;;;;5002167;28;20348;-80
2022/12/31 13:12:06;;;;;;;11.10;3.60;;;16.30;82.80;;;;;;5003901;28;20041;-80
2022/12/31 13:14:35;;;;;;;16.50;4.47;;;16.30;82.60;;;;;;5000824;28;20046;-79
2022/12/31 13:17:27;;;;;;;12.60;3.53;;;16.30;82.60;;;;;;5000172;28;20049;-79
2022/12/31 13:20:14;;;;;;;13.40;3.97;;;16.30;82.30;;;;;;5001990;28;20084;-79
2022/12/31 13:22:46;;;;;;;12.68;3.80;;;16.30;82.10;;;;;;5007339;28;20045;-80
2022/12/31 13:25:39;;;;;;;11.50;3.72;;;16.20;82.00;;;;;;5007229;28;20026;-79
2022/12/31 13:28:15;;;;;;;13.82;3.85;;;16.20;81.90;;;;;;5004275;28;20073;-80
2022/12/31 13:30:48;;;;;;;11.98;3.50;;;16.20;82.10;;;;;;5002996;28;20062;-78
2022/12/31 13:33:21;;;;;;;13.10;3.55;;;16.20;81.80;;;;;;5011157;28;20067;-80
2022/12/31 13:35:47;;;;;;;14.13;4.07;;;16.10;81.30;;;;;;5014882;28;20026;-80
2022/12/31 13:38:46;;;;;;;15.73;5.07;;;16.10;81.40;;;;;;4996076;28;20144;-80